sensor_id;sensor_type;location;lat;lon;timestamp;P1;durP1;ratioP1;P2;durP2;ratioP2
74935;SDS011;63501;55.570;37.488;2023-04-24T00:00:36;4.93;;;3.05;;
74935;SDS011;63501;55.570;37.488;2023-04-24T00:03:05;7.20;;;3.95;;
74935;SDS011;63501;55.570;37.488;2023-04-24T00:05:34;6.95;;;4.03;;
74935;SDS011;63501;55.570;37.488;2023-04-24T00:08:01;8.10;;;3.78;;
74935;SDS011;63501;55.570;37.488;2023-04-24T00:10:28;4.72;;;3.05;;
74935;SDS011;63501;55.570;37.488;2023-04-24T00:12:56;6.82;;;3.65;;
74935;SDS011;63501;55.570;37.488;2023-04-24T00:15:23;5.38;;;3.30;;
74935;SDS011;63501;55.570;37.488;2023-04-24T00:17:50;5.47;;;3.45;;
74935;SDS011;63501;55.570;37.488;2023-04-24T00:20:18;6.57;;;3.38;;
74935;SDS011;63501;55.570;37.488;2023-04-24T00:22:47;5.15;;;3.65;;
74935;SDS011;63501;55.570;37.488;2023-04-24T00:25:14;7.05;;;3.70;;
74935;SDS011;63501;55.570;37.488;2023-04-24T00:27:42;6.03;;;3.58;;
74935;SDS011;63501;55.570;37.488;2023-04-24T00:30:09;10.48;;;4.10;;
74935;SDS011;63501;55.570;37.488;2023-04-24T00:32:37;7.22;;;3.63;;
74935;SDS011;63501;55.570;37.488;2023-04-24T00:35:04;6.72;;;3.42;;
74935;SDS011;63501;55.570;37.488;2023-04-24T00:37:32;6.00;;;3.63;;
74935;SDS011;63501;55.570;37.488;2023-04-24T00:40:00;10.75;;;4.00;;
74935;SDS011;63501;55.570;37.488;2023-04-24T00:42:28;6.50;;;3.40;;
74935;SDS011;63501;55.570;37.488;2023-04-24T00:44:55;9.57;;;3.47;;
74935;SDS011;63501;55.570;37.488;2023-04-24T00:47:23;8.18;;;3.80;;
74935;SDS011;63501;55.570;37.488;2023-04-24T00:49:51;5.97;;;3.78;;
74935;SDS011;63501;55.570;37.488;2023-04-24T00:52:18;7.60;;;4.15;;
74935;SDS011;63501;55.570;37.488;2023-04-24T00:54:45;7.30;;;4.25;;
74935;SDS011;63501;55.570;37.488;2023-04-24T00:57:14;7.50;;;3.53;;
74935;SDS011;63501;55.570;37.488;2023-04-24T00:59:41;7.80;;;4.00;;
74935;SDS011;63501;55.570;37.488;2023-04-24T01:02:08;7.68;;;4.15;;
74935;SDS011;63501;55.570;37.488;2023-04-24T01:04:36;5.82;;;4.20;;
74935;SDS011;63501;55.570;37.488;2023-04-24T01:07:04;6.75;;;4.18;;
74935;SDS011;63501;55.570;37.488;2023-04-24T01:09:35;11.30;;;4.35;;
74935;SDS011;63501;55.570;37.488;2023-04-24T01:12:03;8.45;;;4.72;;
74935;SDS011;63501;55.570;37.488;2023-04-24T01:14:32;8.77;;;4.55;;
74935;SDS011;63501;55.570;37.488;2023-04-24T01:16:59;7.25;;;4.47;;
74935;SDS011;63501;55.570;37.488;2023-04-24T01:19:27;8.45;;;4.70;;
74935;SDS011;63501;55.570;37.488;2023-04-24T01:21:54;9.57;;;4.82;;
74935;SDS011;63501;55.570;37.488;2023-04-24T01:24:26;6.45;;;4.35;;
74935;SDS011;63501;55.570;37.488;2023-04-24T01:26:53;8.30;;;5.05;;
74935;SDS011;63501;55.570;37.488;2023-04-24T01:29:20;9.95;;;5.30;;
74935;SDS011;63501;55.570;37.488;2023-04-24T01:31:48;9.88;;;5.22;;
74935;SDS011;63501;55.570;37.488;2023-04-24T01:34:15;7.47;;;5.10;;
74935;SDS011;63501;55.570;37.488;2023-04-24T01:36:42;9.75;;;5.13;;
74935;SDS011;63501;55.570;37.488;2023-04-24T01:39:12;8.75;;;5.25;;
74935;SDS011;63501;55.570;37.488;2023-04-24T01:41:41;9.20;;;4.95;;
74935;SDS011;63501;55.570;37.488;2023-04-24T01:44:09;8.75;;;5.40;;
74935;SDS011;63501;55.570;37.488;2023-04-24T01:46:36;11.52;;;5.45;;
74935;SDS011;63501;55.570;37.488;2023-04-24T01:49:04;9.40;;;5.15;;
74935;SDS011;63501;55.570;37.488;2023-04-24T01:51:31;9.38;;;5.50;;
74935;SDS011;63501;55.570;37.488;2023-04-24T01:53:58;9.68;;;5.55;;
74935;SDS011;63501;55.570;37.488;2023-04-24T01:56:25;10.50;;;6.22;;
74935;SDS011;63501;55.570;37.488;2023-04-24T01:58:57;8.52;;;5.63;;
74935;SDS011;63501;55.570;37.488;2023-04-24T02:01:24;10.50;;;5.80;;
74935;SDS011;63501;55.570;37.488;2023-04-24T02:03:51;10.18;;;6.38;;
74935;SDS011;63501;55.570;37.488;2023-04-24T02:06:18;8.02;;;5.25;;
74935;SDS011;63501;55.570;37.488;2023-04-24T02:08:45;8.02;;;5.55;;
74935;SDS011;63501;55.570;37.488;2023-04-24T02:11:13;10.13;;;5.72;;
74935;SDS011;63501;55.570;37.488;2023-04-24T02:13:40;8.48;;;5.97;;
74935;SDS011;63501;55.570;37.488;2023-04-24T02:16:10;11.07;;;5.70;;
74935;SDS011;63501;55.570;37.488;2023-04-24T02:18:58;8.75;;;5.75;;
74935;SDS011;63501;55.570;37.488;2023-04-24T02:21:25;10.77;;;5.93;;
74935;SDS011;63501;55.570;37.488;2023-04-24T02:23:52;9.68;;;5.80;;
74935;SDS011;63501;55.570;37.488;2023-04-24T02:26:20;8.15;;;5.55;;
74935;SDS011;63501;55.570;37.488;2023-04-24T02:28:48;9.95;;;5.93;;
74935;SDS011;63501;55.570;37.488;2023-04-24T02:31:16;9.93;;;5.78;;
74935;SDS011;63501;55.570;37.488;2023-04-24T02:33:43;9.25;;;5.45;;
74935;SDS011;63501;55.570;37.488;2023-04-24T02:36:10;9.20;;;6.03;;
74935;SDS011;63501;55.570;37.488;2023-04-24T02:38:38;11.10;;;5.75;;
74935;SDS011;63501;55.570;37.488;2023-04-24T02:41:05;8.05;;;5.10;;
74935;SDS011;63501;55.570;37.488;2023-04-24T02:43:32;9.55;;;5.82;;
74935;SDS011;63501;55.570;37.488;2023-04-24T02:45:59;10.30;;;6.10;;
74935;SDS011;63501;55.570;37.488;2023-04-24T02:48:28;11.10;;;6.10;;
74935;SDS011;63501;55.570;37.488;2023-04-24T02:50:55;7.50;;;5.20;;
74935;SDS011;63501;55.570;37.488;2023-04-24T02:53:22;8.77;;;5.57;;
74935;SDS011;63501;55.570;37.488;2023-04-24T02:55:49;9.07;;;5.75;;
74935;SDS011;63501;55.570;37.488;2023-04-24T02:58:16;10.50;;;5.63;;
74935;SDS011;63501;55.570;37.488;2023-04-24T03:00:45;11.88;;;5.35;;
74935;SDS011;63501;55.570;37.488;2023-04-24T03:03:12;8.20;;;4.97;;
74935;SDS011;63501;55.570;37.488;2023-04-24T03:05:40;11.60;;;5.60;;
74935;SDS011;63501;55.570;37.488;2023-04-24T03:08:07;8.55;;;5.32;;
74935;SDS011;63501;55.570;37.488;2023-04-24T03:10:35;11.40;;;5.57;;
74935;SDS011;63501;55.570;37.488;2023-04-24T03:13:03;11.38;;;5.50;;
74935;SDS011;63501;55.570;37.488;2023-04-24T03:15:30;12.18;;;5.20;;
74935;SDS011;63501;55.570;37.488;2023-04-24T03:17:57;11.05;;;5.75;;
74935;SDS011;63501;55.570;37.488;2023-04-24T03:22:54;11.13;;;5.00;;
74935;SDS011;63501;55.570;37.488;2023-04-24T03:25:21;9.02;;;5.22;;
74935;SDS011;63501;55.570;37.488;2023-04-24T03:27:48;9.57;;;6.13;;
74935;SDS011;63501;55.570;37.488;2023-04-24T03:30:15;10.10;;;5.28;;
74935;SDS011;63501;55.570;37.488;2023-04-24T03:32:42;9.45;;;5.65;;
74935;SDS011;63501;55.570;37.488;2023-04-24T03:35:09;12.18;;;5.72;;
74935;SDS011;63501;55.570;37.488;2023-04-24T03:37:37;8.63;;;5.60;;
74935;SDS011;63501;55.570;37.488;2023-04-24T03:40:07;9.63;;;5.75;;
74935;SDS011;63501;55.570;37.488;2023-04-24T03:42:35;11.52;;;5.50;;
74935;SDS011;63501;55.570;37.488;2023-04-24T03:45:02;13.15;;;7.15;;
74935;SDS011;63501;55.570;37.488;2023-04-24T03:47:30;9.65;;;5.47;;
74935;SDS011;63501;55.570;37.488;2023-04-24T03:49:57;13.73;;;6.03;;
74935;SDS011;63501;55.570;37.488;2023-04-24T03:52:24;7.68;;;5.75;;
74935;SDS011;63501;55.570;37.488;2023-04-24T03:54:51;10.98;;;6.28;;
74935;SDS011;63501;55.570;37.488;2023-04-24T03:57:20;7.35;;;5.68;;
74935;SDS011;63501;55.570;37.488;2023-04-24T03:59:47;10.25;;;5.35;;
74935;SDS011;63501;55.570;37.488;2023-04-24T04:02:14;9.35;;;5.47;;
74935;SDS011;63501;55.570;37.488;2023-04-24T04:04:42;11.10;;;6.03;;
74935;SDS011;63501;55.570;37.488;2023-04-24T04:07:09;10.38;;;5.63;;
74935;SDS011;63501;55.570;37.488;2023-04-24T04:09:38;8.52;;;5.20;;
74935;SDS011;63501;55.570;37.488;2023-04-24T04:12:05;6.25;;;4.63;;
74935;SDS011;63501;55.570;37.488;2023-04-24T04:14:34;7.53;;;5.30;;
74935;SDS011;63501;55.570;37.488;2023-04-24T04:17:01;7.93;;;5.28;;
74935;SDS011;63501;55.570;37.488;2023-04-24T04:19:28;8.45;;;5.18;;
74935;SDS011;63501;55.570;37.488;2023-04-24T04:21:55;8.30;;;5.45;;
74935;SDS011;63501;55.570;37.488;2023-04-24T04:24:22;10.00;;;6.45;;
74935;SDS011;63501;55.570;37.488;2023-04-24T04:26:51;11.57;;;6.03;;
74935;SDS011;63501;55.570;37.488;2023-04-24T04:29:22;11.27;;;6.30;;
74935;SDS011;63501;55.570;37.488;2023-04-24T04:31:50;14.73;;;6.32;;
74935;SDS011;63501;55.570;37.488;2023-04-24T04:34:18;13.40;;;6.60;;
74935;SDS011;63501;55.570;37.488;2023-04-24T04:36:45;10.30;;;6.57;;
74935;SDS011;63501;55.570;37.488;2023-04-24T04:39:12;10.73;;;6.10;;
74935;SDS011;63501;55.570;37.488;2023-04-24T04:41:41;14.70;;;6.68;;
74935;SDS011;63501;55.570;37.488;2023-04-24T04:44:09;13.25;;;6.20;;
74935;SDS011;63501;55.570;37.488;2023-04-24T04:46:36;14.07;;;5.88;;
74935;SDS011;63501;55.570;37.488;2023-04-24T04:49:05;11.15;;;6.10;;
74935;SDS011;63501;55.570;37.488;2023-04-24T04:51:34;8.25;;;5.97;;
74935;SDS011;63501;55.570;37.488;2023-04-24T04:54:01;10.32;;;6.13;;
74935;SDS011;63501;55.570;37.488;2023-04-24T04:56:29;13.30;;;5.72;;
74935;SDS011;63501;55.570;37.488;2023-04-24T04:58:56;13.20;;;6.50;;
74935;SDS011;63501;55.570;37.488;2023-04-24T05:01:24;18.00;;;6.70;;
74935;SDS011;63501;55.570;37.488;2023-04-24T05:03:52;8.60;;;5.50;;
74935;SDS011;63501;55.570;37.488;2023-04-24T05:06:21;7.88;;;4.68;;
74935;SDS011;63501;55.570;37.488;2023-04-24T05:08:48;7.88;;;5.10;;
74935;SDS011;63501;55.570;37.488;2023-04-24T05:11:16;7.72;;;5.30;;
74935;SDS011;63501;55.570;37.488;2023-04-24T05:13:43;10.98;;;5.93;;
74935;SDS011;63501;55.570;37.488;2023-04-24T05:16:11;9.15;;;6.00;;
74935;SDS011;63501;55.570;37.488;2023-04-24T05:18:38;11.52;;;6.38;;
74935;SDS011;63501;55.570;37.488;2023-04-24T05:21:05;10.18;;;5.97;;
74935;SDS011;63501;55.570;37.488;2023-04-24T05:23:37;14.07;;;6.97;;
74935;SDS011;63501;55.570;37.488;2023-04-24T05:26:05;12.27;;;6.25;;
74935;SDS011;63501;55.570;37.488;2023-04-24T05:28:33;16.75;;;7.85;;
74935;SDS011;63501;55.570;37.488;2023-04-24T05:31:01;11.90;;;6.45;;
74935;SDS011;63501;55.570;37.488;2023-04-24T05:33:28;11.25;;;5.78;;
74935;SDS011;63501;55.570;37.488;2023-04-24T05:35:56;12.80;;;6.10;;
74935;SDS011;63501;55.570;37.488;2023-04-24T05:38:23;16.10;;;7.55;;
74935;SDS011;63501;55.570;37.488;2023-04-24T05:40:54;17.80;;;6.22;;
74935;SDS011;63501;55.570;37.488;2023-04-24T05:43:24;17.63;;;7.15;;
74935;SDS011;63501;55.570;37.488;2023-04-24T05:45:55;14.75;;;6.75;;
74935;SDS011;63501;55.570;37.488;2023-04-24T05:48:22;13.77;;;6.93;;
74935;SDS011;63501;55.570;37.488;2023-04-24T05:50:51;12.95;;;6.15;;
74935;SDS011;63501;55.570;37.488;2023-04-24T05:53:20;13.38;;;6.95;;
74935;SDS011;63501;55.570;37.488;2023-04-24T05:55:47;17.98;;;6.72;;
74935;SDS011;63501;55.570;37.488;2023-04-24T05:58:16;20.65;;;6.93;;
74935;SDS011;63501;55.570;37.488;2023-04-24T06:00:45;22.95;;;7.05;;
74935;SDS011;63501;55.570;37.488;2023-04-24T06:03:12;18.17;;;7.25;;
74935;SDS011;63501;55.570;37.488;2023-04-24T06:05:41;20.17;;;6.70;;
74935;SDS011;63501;55.570;37.488;2023-04-24T06:08:09;13.85;;;6.00;;
74935;SDS011;63501;55.570;37.488;2023-04-24T06:10:39;15.15;;;6.97;;
74935;SDS011;63501;55.570;37.488;2023-04-24T06:13:06;13.05;;;6.80;;
74935;SDS011;63501;55.570;37.488;2023-04-24T06:15:35;12.20;;;6.22;;
74935;SDS011;63501;55.570;37.488;2023-04-24T06:18:03;16.40;;;6.65;;
74935;SDS011;63501;55.570;37.488;2023-04-24T06:20:32;10.05;;;6.38;;
74935;SDS011;63501;55.570;37.488;2023-04-24T06:22:59;15.57;;;6.18;;
74935;SDS011;63501;55.570;37.488;2023-04-24T06:25:26;14.38;;;5.80;;
74935;SDS011;63501;55.570;37.488;2023-04-24T06:27:54;16.00;;;6.05;;
74935;SDS011;63501;55.570;37.488;2023-04-24T06:30:22;10.75;;;5.50;;
74935;SDS011;63501;55.570;37.488;2023-04-24T06:32:52;12.20;;;5.70;;
74935;SDS011;63501;55.570;37.488;2023-04-24T06:35:19;9.43;;;5.50;;
74935;SDS011;63501;55.570;37.488;2023-04-24T06:37:46;13.02;;;5.55;;
74935;SDS011;63501;55.570;37.488;2023-04-24T06:40:13;11.20;;;5.47;;
74935;SDS011;63501;55.570;37.488;2023-04-24T06:42:41;10.85;;;5.53;;
74935;SDS011;63501;55.570;37.488;2023-04-24T06:45:09;11.52;;;4.93;;
74935;SDS011;63501;55.570;37.488;2023-04-24T06:47:36;11.20;;;6.10;;
74935;SDS011;63501;55.570;37.488;2023-04-24T06:50:06;13.70;;;5.10;;
74935;SDS011;63501;55.570;37.488;2023-04-24T06:52:34;9.35;;;5.20;;
74935;SDS011;63501;55.570;37.488;2023-04-24T06:55:04;13.32;;;4.63;;
74935;SDS011;63501;55.570;37.488;2023-04-24T06:57:32;17.30;;;5.03;;
74935;SDS011;63501;55.570;37.488;2023-04-24T06:59:59;8.48;;;5.00;;
74935;SDS011;63501;55.570;37.488;2023-04-24T07:02:29;14.63;;;5.15;;
74935;SDS011;63501;55.570;37.488;2023-04-24T07:04:56;9.60;;;4.47;;
74935;SDS011;63501;55.570;37.488;2023-04-24T07:07:24;8.43;;;4.82;;
74935;SDS011;63501;55.570;37.488;2023-04-24T07:09:52;7.05;;;4.32;;
74935;SDS011;63501;55.570;37.488;2023-04-24T07:12:21;7.93;;;4.00;;
74935;SDS011;63501;55.570;37.488;2023-04-24T07:14:48;9.68;;;4.20;;
74935;SDS011;63501;55.570;37.488;2023-04-24T07:17:16;9.35;;;4.25;;
74935;SDS011;63501;55.570;37.488;2023-04-24T07:19:43;10.63;;;4.85;;
74935;SDS011;63501;55.570;37.488;2023-04-24T07:22:10;5.40;;;3.92;;
74935;SDS011;63501;55.570;37.488;2023-04-24T07:24:43;6.03;;;3.80;;
74935;SDS011;63501;55.570;37.488;2023-04-24T07:27:10;12.63;;;4.97;;
74935;SDS011;63501;55.570;37.488;2023-04-24T07:29:39;6.43;;;3.70;;
74935;SDS011;63501;55.570;37.488;2023-04-24T07:32:07;8.93;;;4.13;;
74935;SDS011;63501;55.570;37.488;2023-04-24T07:34:34;6.25;;;3.45;;
74935;SDS011;63501;55.570;37.488;2023-04-24T07:37:01;8.13;;;3.70;;
74935;SDS011;63501;55.570;37.488;2023-04-24T07:39:30;4.72;;;3.47;;
74935;SDS011;63501;55.570;37.488;2023-04-24T07:44:27;4.75;;;3.10;;
74935;SDS011;63501;55.570;37.488;2023-04-24T07:46:54;7.10;;;3.20;;
74935;SDS011;63501;55.570;37.488;2023-04-24T07:49:22;5.53;;;2.97;;
74935;SDS011;63501;55.570;37.488;2023-04-24T07:51:49;4.25;;;3.50;;
74935;SDS011;63501;55.570;37.488;2023-04-24T07:54:16;4.72;;;3.10;;
74935;SDS011;63501;55.570;37.488;2023-04-24T07:56:44;4.95;;;3.00;;
74935;SDS011;63501;55.570;37.488;2023-04-24T07:59:12;4.32;;;2.60;;
74935;SDS011;63501;55.570;37.488;2023-04-24T08:01:39;4.75;;;3.30;;
74935;SDS011;63501;55.570;37.488;2023-04-24T08:04:07;5.15;;;3.00;;
74935;SDS011;63501;55.570;37.488;2023-04-24T08:06:35;5.68;;;3.40;;
74935;SDS011;63501;55.570;37.488;2023-04-24T08:09:06;6.32;;;3.58;;
74935;SDS011;63501;55.570;37.488;2023-04-24T08:11:35;6.15;;;3.00;;
74935;SDS011;63501;55.570;37.488;2023-04-24T08:14:02;5.28;;;3.03;;
74935;SDS011;63501;55.570;37.488;2023-04-24T08:16:31;5.88;;;3.22;;
74935;SDS011;63501;55.570;37.488;2023-04-24T08:18:59;5.90;;;2.97;;
74935;SDS011;63501;55.570;37.488;2023-04-24T08:21:29;8.82;;;3.40;;
74935;SDS011;63501;55.570;37.488;2023-04-24T08:23:57;6.47;;;3.00;;
74935;SDS011;63501;55.570;37.488;2023-04-24T08:26:24;4.60;;;3.10;;
74935;SDS011;63501;55.570;37.488;2023-04-24T08:28:51;3.90;;;2.90;;
74935;SDS011;63501;55.570;37.488;2023-04-24T08:31:18;5.75;;;3.25;;
74935;SDS011;63501;55.570;37.488;2023-04-24T08:33:47;4.32;;;2.88;;
74935;SDS011;63501;55.570;37.488;2023-04-24T08:36:14;4.13;;;3.10;;
74935;SDS011;63501;55.570;37.488;2023-04-24T08:38:44;5.90;;;3.38;;
74935;SDS011;63501;55.570;37.488;2023-04-24T08:41:11;7.60;;;3.45;;
74935;SDS011;63501;55.570;37.488;2023-04-24T08:43:42;4.75;;;3.25;;
74935;SDS011;63501;55.570;37.488;2023-04-24T08:46:10;6.43;;;3.40;;
74935;SDS011;63501;55.570;37.488;2023-04-24T08:48:39;3.95;;;2.83;;
74935;SDS011;63501;55.570;37.488;2023-04-24T08:51:08;5.22;;;3.00;;
74935;SDS011;63501;55.570;37.488;2023-04-24T08:53:36;3.95;;;3.13;;
74935;SDS011;63501;55.570;37.488;2023-04-24T08:56:08;3.75;;;3.40;;
74935;SDS011;63501;55.570;37.488;2023-04-24T08:58:37;4.90;;;3.20;;
74935;SDS011;63501;55.570;37.488;2023-04-24T09:01:05;12.93;;;4.75;;
74935;SDS011;63501;55.570;37.488;2023-04-24T09:03:33;8.70;;;3.53;;
74935;SDS011;63501;55.570;37.488;2023-04-24T09:06:11;8.55;;;3.40;;
74935;SDS011;63501;55.570;37.488;2023-04-24T09:08:39;5.65;;;3.17;;
74935;SDS011;63501;55.570;37.488;2023-04-24T09:11:10;5.90;;;3.45;;
74935;SDS011;63501;55.570;37.488;2023-04-24T09:13:40;6.70;;;3.47;;
74935;SDS011;63501;55.570;37.488;2023-04-24T09:16:08;7.15;;;3.22;;
74935;SDS011;63501;55.570;37.488;2023-04-24T09:18:36;7.68;;;3.33;;
74935;SDS011;63501;55.570;37.488;2023-04-24T09:21:04;5.35;;;3.28;;
74935;SDS011;63501;55.570;37.488;2023-04-24T09:23:36;8.55;;;3.20;;
74935;SDS011;63501;55.570;37.488;2023-04-24T09:26:06;5.20;;;3.33;;
74935;SDS011;63501;55.570;37.488;2023-04-24T09:28:36;4.80;;;3.25;;
74935;SDS011;63501;55.570;37.488;2023-04-24T09:31:05;5.35;;;3.25;;
74935;SDS011;63501;55.570;37.488;2023-04-24T09:33:33;5.15;;;3.67;;
74935;SDS011;63501;55.570;37.488;2023-04-24T09:38:30;4.55;;;3.38;;
74935;SDS011;63501;55.570;37.488;2023-04-24T09:41:01;5.40;;;3.92;;
74935;SDS011;63501;55.570;37.488;2023-04-24T09:43:32;5.47;;;3.25;;
74935;SDS011;63501;55.570;37.488;2023-04-24T09:46:07;6.15;;;3.60;;
74935;SDS011;63501;55.570;37.488;2023-04-24T09:48:35;4.78;;;3.28;;
74935;SDS011;63501;55.570;37.488;2023-04-24T09:51:04;4.28;;;3.20;;
74935;SDS011;63501;55.570;37.488;2023-04-24T09:53:35;3.47;;;3.03;;
74935;SDS011;63501;55.570;37.488;2023-04-24T09:56:08;4.43;;;3.47;;
74935;SDS011;63501;55.570;37.488;2023-04-24T09:58:38;5.72;;;3.00;;
74935;SDS011;63501;55.570;37.488;2023-04-24T10:01:06;7.97;;;3.50;;
74935;SDS011;63501;55.570;37.488;2023-04-24T10:03:34;6.18;;;3.17;;
74935;SDS011;63501;55.570;37.488;2023-04-24T10:06:01;5.68;;;3.42;;
74935;SDS011;63501;55.570;37.488;2023-04-24T10:08:34;4.45;;;3.20;;
74935;SDS011;63501;55.570;37.488;2023-04-24T10:11:02;4.18;;;3.00;;
74935;SDS011;63501;55.570;37.488;2023-04-24T10:13:31;5.03;;;3.13;;
74935;SDS011;63501;55.570;37.488;2023-04-24T10:15:59;4.57;;;2.92;;
74935;SDS011;63501;55.570;37.488;2023-04-24T10:18:27;5.05;;;3.28;;
74935;SDS011;63501;55.570;37.488;2023-04-24T10:20:55;7.25;;;2.88;;
74935;SDS011;63501;55.570;37.488;2023-04-24T10:23:24;4.65;;;3.03;;
74935;SDS011;63501;55.570;37.488;2023-04-24T10:25:53;6.55;;;3.33;;
74935;SDS011;63501;55.570;37.488;2023-04-24T10:28:21;4.68;;;3.05;;
74935;SDS011;63501;55.570;37.488;2023-04-24T10:30:50;3.65;;;2.88;;
74935;SDS011;63501;55.570;37.488;2023-04-24T10:33:24;5.07;;;3.00;;
74935;SDS011;63501;55.570;37.488;2023-04-24T10:35:53;6.93;;;3.38;;
74935;SDS011;63501;55.570;37.488;2023-04-24T10:38:22;5.03;;;2.90;;
74935;SDS011;63501;55.570;37.488;2023-04-24T10:40:52;4.35;;;3.20;;
74935;SDS011;63501;55.570;37.488;2023-04-24T10:43:24;5.30;;;3.10;;
74935;SDS011;63501;55.570;37.488;2023-04-24T10:48:28;4.43;;;3.25;;
74935;SDS011;63501;55.570;37.488;2023-04-24T10:50:56;3.13;;;2.83;;
74935;SDS011;63501;55.570;37.488;2023-04-24T10:55:57;6.03;;;3.08;;
74935;SDS011;63501;55.570;37.488;2023-04-24T10:58:35;5.30;;;3.00;;
74935;SDS011;63501;55.570;37.488;2023-04-24T11:01:07;4.97;;;3.65;;
74935;SDS011;63501;55.570;37.488;2023-04-24T11:03:35;5.03;;;2.83;;
74935;SDS011;63501;55.570;37.488;2023-04-24T11:06:03;4.32;;;3.03;;
74935;SDS011;63501;55.570;37.488;2023-04-24T11:08:32;3.33;;;2.92;;
74935;SDS011;63501;55.570;37.488;2023-04-24T11:11:10;4.47;;;3.30;;
74935;SDS011;63501;55.570;37.488;2023-04-24T11:16:31;4.30;;;3.20;;
74935;SDS011;63501;55.570;37.488;2023-04-24T11:19:03;4.65;;;2.80;;
74935;SDS011;63501;55.570;37.488;2023-04-24T11:21:43;5.57;;;2.67;;
74935;SDS011;63501;55.570;37.488;2023-04-24T11:24:27;5.90;;;3.30;;
74935;SDS011;63501;55.570;37.488;2023-04-24T11:26:56;3.38;;;2.78;;
74935;SDS011;63501;55.570;37.488;2023-04-24T11:29:39;4.88;;;2.75;;
74935;SDS011;63501;55.570;37.488;2023-04-24T11:32:16;3.22;;;2.72;;
74935;SDS011;63501;55.570;37.488;2023-04-24T11:34:52;4.25;;;2.78;;
74935;SDS011;63501;55.570;37.488;2023-04-24T11:37:22;5.47;;;2.70;;
74935;SDS011;63501;55.570;37.488;2023-04-24T11:39:51;4.07;;;2.60;;
74935;SDS011;63501;55.570;37.488;2023-04-24T11:42:24;3.45;;;2.60;;
74935;SDS011;63501;55.570;37.488;2023-04-24T11:44:52;3.05;;;2.60;;
74935;SDS011;63501;55.570;37.488;2023-04-24T11:47:23;3.30;;;2.80;;
74935;SDS011;63501;55.570;37.488;2023-04-24T11:49:54;3.90;;;2.95;;
74935;SDS011;63501;55.570;37.488;2023-04-24T11:52:21;8.55;;;3.10;;
74935;SDS011;63501;55.570;37.488;2023-04-24T11:54:49;3.03;;;2.50;;
74935;SDS011;63501;55.570;37.488;2023-04-24T11:57:16;5.57;;;3.00;;
74935;SDS011;63501;55.570;37.488;2023-04-24T11:59:46;5.00;;;2.72;;
74935;SDS011;63501;55.570;37.488;2023-04-24T12:02:20;5.63;;;2.75;;
74935;SDS011;63501;55.570;37.488;2023-04-24T12:04:50;5.15;;;2.50;;
74935;SDS011;63501;55.570;37.488;2023-04-24T12:07:18;6.40;;;2.75;;
74935;SDS011;63501;55.570;37.488;2023-04-24T12:09:46;3.38;;;2.42;;
74935;SDS011;63501;55.570;37.488;2023-04-24T12:12:14;3.55;;;2.75;;
74935;SDS011;63501;55.570;37.488;2023-04-24T12:14:47;5.85;;;3.10;;
74935;SDS011;63501;55.570;37.488;2023-04-24T12:17:14;3.60;;;2.58;;
74935;SDS011;63501;55.570;37.488;2023-04-24T12:19:47;5.38;;;2.60;;
74935;SDS011;63501;55.570;37.488;2023-04-24T12:22:15;7.40;;;2.60;;
74935;SDS011;63501;55.570;37.488;2023-04-24T12:24:56;4.40;;;2.67;;
74935;SDS011;63501;55.570;37.488;2023-04-24T12:27:30;5.70;;;3.03;;
74935;SDS011;63501;55.570;37.488;2023-04-24T12:29:59;5.57;;;2.65;;
74935;SDS011;63501;55.570;37.488;2023-04-24T12:32:28;7.28;;;2.30;;
74935;SDS011;63501;55.570;37.488;2023-04-24T12:34:57;6.18;;;2.97;;
74935;SDS011;63501;55.570;37.488;2023-04-24T12:37:25;4.30;;;2.53;;
74935;SDS011;63501;55.570;37.488;2023-04-24T12:40:03;3.78;;;2.60;;
74935;SDS011;63501;55.570;37.488;2023-04-24T12:42:32;5.93;;;2.75;;
74935;SDS011;63501;55.570;37.488;2023-04-24T12:45:00;4.35;;;2.85;;
74935;SDS011;63501;55.570;37.488;2023-04-24T12:47:30;6.43;;;2.72;;
74935;SDS011;63501;55.570;37.488;2023-04-24T12:49:59;7.38;;;2.55;;
74935;SDS011;63501;55.570;37.488;2023-04-24T12:52:28;3.78;;;2.70;;
74935;SDS011;63501;55.570;37.488;2023-04-24T12:54:56;4.82;;;2.83;;
74935;SDS011;63501;55.570;37.488;2023-04-24T12:57:25;7.22;;;3.00;;
74935;SDS011;63501;55.570;37.488;2023-04-24T12:59:53;5.72;;;2.80;;
74935;SDS011;63501;55.570;37.488;2023-04-24T13:02:21;3.53;;;2.78;;
74935;SDS011;63501;55.570;37.488;2023-04-24T13:04:48;2.38;;;2.15;;
74935;SDS011;63501;55.570;37.488;2023-04-24T13:07:17;3.88;;;2.50;;
74935;SDS011;63501;55.570;37.488;2023-04-24T13:09:48;4.40;;;2.53;;
74935;SDS011;63501;55.570;37.488;2023-04-24T13:12:16;6.25;;;2.60;;
74935;SDS011;63501;55.570;37.488;2023-04-24T13:14:43;5.22;;;2.58;;
74935;SDS011;63501;55.570;37.488;2023-04-24T13:19:38;3.40;;;2.45;;
74935;SDS011;63501;55.570;37.488;2023-04-24T13:22:08;3.28;;;2.58;;
74935;SDS011;63501;55.570;37.488;2023-04-24T13:24:37;5.03;;;2.67;;
74935;SDS011;63501;55.570;37.488;2023-04-24T13:27:06;4.63;;;2.42;;
74935;SDS011;63501;55.570;37.488;2023-04-24T13:29:34;3.00;;;2.67;;
74935;SDS011;63501;55.570;37.488;2023-04-24T13:32:01;5.93;;;2.70;;
74935;SDS011;63501;55.570;37.488;2023-04-24T13:34:28;7.10;;;3.08;;
74935;SDS011;63501;55.570;37.488;2023-04-24T13:39:23;8.23;;;2.78;;
74935;SDS011;63501;55.570;37.488;2023-04-24T13:41:52;4.05;;;2.60;;
74935;SDS011;63501;55.570;37.488;2023-04-24T13:44:20;4.50;;;2.83;;
74935;SDS011;63501;55.570;37.488;2023-04-24T13:46:49;5.05;;;3.00;;
74935;SDS011;63501;55.570;37.488;2023-04-24T13:49:19;4.22;;;2.60;;
74935;SDS011;63501;55.570;37.488;2023-04-24T13:51:47;7.80;;;2.97;;
74935;SDS011;63501;55.570;37.488;2023-04-24T13:54:14;4.60;;;2.50;;
74935;SDS011;63501;55.570;37.488;2023-04-24T13:56:41;5.95;;;2.50;;
74935;SDS011;63501;55.570;37.488;2023-04-24T13:59:11;5.32;;;2.70;;
74935;SDS011;63501;55.570;37.488;2023-04-24T14:01:38;9.65;;;3.25;;
74935;SDS011;63501;55.570;37.488;2023-04-24T14:04:06;5.28;;;2.30;;
74935;SDS011;63501;55.570;37.488;2023-04-24T14:06:33;5.00;;;2.50;;
74935;SDS011;63501;55.570;37.488;2023-04-24T14:09:00;7.28;;;2.53;;
74935;SDS011;63501;55.570;37.488;2023-04-24T14:11:27;6.43;;;2.88;;
74935;SDS011;63501;55.570;37.488;2023-04-24T14:13:55;5.63;;;2.80;;
74935;SDS011;63501;55.570;37.488;2023-04-24T14:16:24;8.20;;;3.10;;
74935;SDS011;63501;55.570;37.488;2023-04-24T14:18:51;6.75;;;2.42;;
74935;SDS011;63501;55.570;37.488;2023-04-24T14:21:18;5.80;;;2.60;;
74935;SDS011;63501;55.570;37.488;2023-04-24T14:23:45;4.57;;;3.03;;
74935;SDS011;63501;55.570;37.488;2023-04-24T14:26:12;6.78;;;2.75;;
74935;SDS011;63501;55.570;37.488;2023-04-24T14:28:39;2.58;;;2.38;;
74935;SDS011;63501;55.570;37.488;2023-04-24T14:33:36;4.82;;;2.58;;
74935;SDS011;63501;55.570;37.488;2023-04-24T14:36:03;7.65;;;3.15;;
74935;SDS011;63501;55.570;37.488;2023-04-24T14:38:30;4.47;;;2.50;;
74935;SDS011;63501;55.570;37.488;2023-04-24T14:40:57;6.40;;;2.53;;
74935;SDS011;63501;55.570;37.488;2023-04-24T14:43:25;7.13;;;2.70;;
74935;SDS011;63501;55.570;37.488;2023-04-24T14:45:52;7.28;;;4.18;;
74935;SDS011;63501;55.570;37.488;2023-04-24T14:48:19;7.65;;;2.58;;
74935;SDS011;63501;55.570;37.488;2023-04-24T14:50:47;6.75;;;2.50;;
74935;SDS011;63501;55.570;37.488;2023-04-24T14:53:14;10.30;;;2.88;;
74935;SDS011;63501;55.570;37.488;2023-04-24T14:55:41;8.55;;;2.92;;
74935;SDS011;63501;55.570;37.488;2023-04-24T14:58:09;7.78;;;2.83;;
74935;SDS011;63501;55.570;37.488;2023-04-24T15:00:36;6.00;;;2.72;;